sensor_id;sensor_type;location;lat;lon;timestamp;temperature;humidity
66271;DHT22;53063;39.614;8.814;2023-07-13T00:00:35;28.20;67.50
66271;DHT22;53063;39.614;8.814;2023-07-13T00:03:02;28.20;67.40
66271;DHT22;53063;39.614;8.814;2023-07-13T00:05:28;28.20;67.40
66271;DHT22;53063;39.614;8.814;2023-07-13T00:07:54;28.20;67.60
66271;DHT22;53063;39.614;8.814;2023-07-13T00:10:21;28.20;67.60
66271;DHT22;53063;39.614;8.814;2023-07-13T00:12:48;28.20;67.70
66271;DHT22;53063;39.614;8.814;2023-07-13T00:15:21;28.20;67.90
66271;DHT22;53063;39.614;8.814;2023-07-13T00:17:53;28.20;68.00
66271;DHT22;53063;39.614;8.814;2023-07-13T00:20:20;28.20;68.00
66271;DHT22;53063;39.614;8.814;2023-07-13T00:22:51;28.10;68.20
66271;DHT22;53063;39.614;8.814;2023-07-13T00:25:22;28.10;68.30
66271;DHT22;53063;39.614;8.814;2023-07-13T00:27:50;28.10;68.40
66271;DHT22;53063;39.614;8.814;2023-07-13T00:30:16;28.10;68.40
66271;DHT22;53063;39.614;8.814;2023-07-13T00:32:42;28.10;68.40
66271;DHT22;53063;39.614;8.814;2023-07-13T00:35:08;28.00;68.60
66271;DHT22;53063;39.614;8.814;2023-07-13T00:37:35;28.00;68.70
66271;DHT22;53063;39.614;8.814;2023-07-13T00:40:05;28.00;68.50
66271;DHT22;53063;39.614;8.814;2023-07-13T00:42:32;28.00;68.70
66271;DHT22;53063;39.614;8.814;2023-07-13T00:47:46;28.00;68.70
66271;DHT22;53063;39.614;8.814;2023-07-13T00:50:14;27.90;68.90
66271;DHT22;53063;39.614;8.814;2023-07-13T00:52:45;27.80;69.10
66271;DHT22;53063;39.614;8.814;2023-07-13T00:55:13;27.80;69.30
66271;DHT22;53063;39.614;8.814;2023-07-13T00:57:40;27.80;69.30
66271;DHT22;53063;39.614;8.814;2023-07-13T01:00:08;27.90;69.40
66271;DHT22;53063;39.614;8.814;2023-07-13T01:02:39;27.70;69.80
66271;DHT22;53063;39.614;8.814;2023-07-13T01:05:18;27.40;70.40
66271;DHT22;53063;39.614;8.814;2023-07-13T01:07:44;27.20;71.40
66271;DHT22;53063;39.614;8.814;2023-07-13T01:10:12;27.00;72.10
66271;DHT22;53063;39.614;8.814;2023-07-13T01:12:38;26.90;72.50
66271;DHT22;53063;39.614;8.814;2023-07-13T01:15:05;27.00;72.70
66271;DHT22;53063;39.614;8.814;2023-07-13T01:17:35;27.10;72.20
66271;DHT22;53063;39.614;8.814;2023-07-13T01:20:01;27.30;71.40
66271;DHT22;53063;39.614;8.814;2023-07-13T01:22:27;27.40;70.80
66271;DHT22;53063;39.614;8.814;2023-07-13T01:24:54;27.30;70.90
66271;DHT22;53063;39.614;8.814;2023-07-13T01:27:23;27.30;70.70
66271;DHT22;53063;39.614;8.814;2023-07-13T01:29:51;27.30;70.60
66271;DHT22;53063;39.614;8.814;2023-07-13T01:32:26;27.30;70.30
66271;DHT22;53063;39.614;8.814;2023-07-13T01:34:54;27.30;69.90
66271;DHT22;53063;39.614;8.814;2023-07-13T01:37:21;27.30;69.60
66271;DHT22;53063;39.614;8.814;2023-07-13T01:39:47;27.40;68.90
66271;DHT22;53063;39.614;8.814;2023-07-13T01:42:14;27.50;68.70
66271;DHT22;53063;39.614;8.814;2023-07-13T01:44:40;27.50;68.40
66271;DHT22;53063;39.614;8.814;2023-07-13T01:47:07;27.50;68.20
66271;DHT22;53063;39.614;8.814;2023-07-13T01:49:33;27.40;68.00
66271;DHT22;53063;39.614;8.814;2023-07-13T01:51:59;27.50;67.60
66271;DHT22;53063;39.614;8.814;2023-07-13T01:54:25;27.50;67.50
66271;DHT22;53063;39.614;8.814;2023-07-13T01:56:51;27.40;67.70
66271;DHT22;53063;39.614;8.814;2023-07-13T01:59:17;27.40;68.10
66271;DHT22;53063;39.614;8.814;2023-07-13T02:01:43;27.30;68.30
66271;DHT22;53063;39.614;8.814;2023-07-13T02:04:09;27.30;68.10
66271;DHT22;53063;39.614;8.814;2023-07-13T02:06:36;27.30;68.20
66271;DHT22;53063;39.614;8.814;2023-07-13T02:09:02;27.40;68.10
66271;DHT22;53063;39.614;8.814;2023-07-13T02:11:28;27.40;68.20
66271;DHT22;53063;39.614;8.814;2023-07-13T02:14:01;27.30;68.80
66271;DHT22;53063;39.614;8.814;2023-07-13T02:16:29;27.10;69.60
66271;DHT22;53063;39.614;8.814;2023-07-13T02:18:55;27.00;70.20
66271;DHT22;53063;39.614;8.814;2023-07-13T02:21:22;26.70;70.50
66271;DHT22;53063;39.614;8.814;2023-07-13T02:23:51;26.60;71.10
66271;DHT22;53063;39.614;8.814;2023-07-13T02:26:18;26.70;71.40
66271;DHT22;53063;39.614;8.814;2023-07-13T02:28:44;26.50;71.70
66271;DHT22;53063;39.614;8.814;2023-07-13T02:31:14;26.50;72.10
66271;DHT22;53063;39.614;8.814;2023-07-13T02:33:40;26.20;72.90
66271;DHT22;53063;39.614;8.814;2023-07-13T02:36:06;26.20;73.30
66271;DHT22;53063;39.614;8.814;2023-07-13T02:38:33;26.20;73.30
66271;DHT22;53063;39.614;8.814;2023-07-13T02:41:02;26.30;73.20
66271;DHT22;53063;39.614;8.814;2023-07-13T02:43:28;26.40;72.60
66271;DHT22;53063;39.614;8.814;2023-07-13T02:45:55;26.40;72.80
66271;DHT22;53063;39.614;8.814;2023-07-13T02:48:21;26.40;73.30
66271;DHT22;53063;39.614;8.814;2023-07-13T02:50:47;26.20;73.40
66271;DHT22;53063;39.614;8.814;2023-07-13T02:53:13;26.00;74.00
66271;DHT22;53063;39.614;8.814;2023-07-13T02:55:39;26.00;74.10
66271;DHT22;53063;39.614;8.814;2023-07-13T02:58:07;26.10;74.50
66271;DHT22;53063;39.614;8.814;2023-07-13T03:00:33;26.10;73.90
66271;DHT22;53063;39.614;8.814;2023-07-13T03:02:59;26.20;73.60
66271;DHT22;53063;39.614;8.814;2023-07-13T03:05:26;26.20;73.60
66271;DHT22;53063;39.614;8.814;2023-07-13T03:07:52;26.30;73.70
66271;DHT22;53063;39.614;8.814;2023-07-13T03:10:21;26.20;74.00
66271;DHT22;53063;39.614;8.814;2023-07-13T03:12:49;26.00;74.20
66271;DHT22;53063;39.614;8.814;2023-07-13T03:15:22;25.70;75.00
66271;DHT22;53063;39.614;8.814;2023-07-13T03:17:49;25.50;75.70
66271;DHT22;53063;39.614;8.814;2023-07-13T03:20:16;25.50;76.00
66271;DHT22;53063;39.614;8.814;2023-07-13T03:22:42;25.50;76.10
66271;DHT22;53063;39.614;8.814;2023-07-13T03:25:09;25.40;76.40
66271;DHT22;53063;39.614;8.814;2023-07-13T03:27:35;25.30;76.60
66271;DHT22;53063;39.614;8.814;2023-07-13T03:30:03;25.20;76.90
66271;DHT22;53063;39.614;8.814;2023-07-13T03:32:30;25.20;77.00
66271;DHT22;53063;39.614;8.814;2023-07-13T03:34:56;25.40;77.10
66271;DHT22;53063;39.614;8.814;2023-07-13T03:37:23;25.20;77.10
66271;DHT22;53063;39.614;8.814;2023-07-13T03:39:50;25.30;77.40
66271;DHT22;53063;39.614;8.814;2023-07-13T03:42:17;25.30;77.30
66271;DHT22;53063;39.614;8.814;2023-07-13T03:44:43;25.50;77.00
66271;DHT22;53063;39.614;8.814;2023-07-13T03:47:16;25.50;76.80
66271;DHT22;53063;39.614;8.814;2023-07-13T03:49:44;25.30;76.80
66271;DHT22;53063;39.614;8.814;2023-07-13T03:52:11;25.30;77.10
66271;DHT22;53063;39.614;8.814;2023-07-13T03:54:37;25.10;77.10
66271;DHT22;53063;39.614;8.814;2023-07-13T03:57:05;24.90;77.90
66271;DHT22;53063;39.614;8.814;2023-07-13T03:59:34;24.70;78.60
66271;DHT22;53063;39.614;8.814;2023-07-13T04:02:01;24.60;79.50
66271;DHT22;53063;39.614;8.814;2023-07-13T04:04:27;24.40;80.00
66271;DHT22;53063;39.614;8.814;2023-07-13T04:06:53;24.10;81.20
66271;DHT22;53063;39.614;8.814;2023-07-13T04:09:19;24.20;81.90
66271;DHT22;53063;39.614;8.814;2023-07-13T04:11:46;24.30;81.80
66271;DHT22;53063;39.614;8.814;2023-07-13T04:14:12;24.40;81.70
66271;DHT22;53063;39.614;8.814;2023-07-13T04:16:37;24.50;81.60
66271;DHT22;53063;39.614;8.814;2023-07-13T04:19:03;24.40;81.60
66271;DHT22;53063;39.614;8.814;2023-07-13T04:21:31;24.40;81.70
66271;DHT22;53063;39.614;8.814;2023-07-13T04:23:57;24.40;81.70
66271;DHT22;53063;39.614;8.814;2023-07-13T04:26:24;24.40;81.70
66271;DHT22;53063;39.614;8.814;2023-07-13T04:28:51;24.50;81.70
66271;DHT22;53063;39.614;8.814;2023-07-13T04:31:17;24.50;81.60
66271;DHT22;53063;39.614;8.814;2023-07-13T04:33:43;24.50;81.60
66271;DHT22;53063;39.614;8.814;2023-07-13T04:36:11;24.40;81.50
66271;DHT22;53063;39.614;8.814;2023-07-13T04:38:38;24.20;82.30
66271;DHT22;53063;39.614;8.814;2023-07-13T04:41:07;24.10;83.10
66271;DHT22;53063;39.614;8.814;2023-07-13T04:43:35;24.20;83.50
66271;DHT22;53063;39.614;8.814;2023-07-13T04:46:06;24.20;83.90
66271;DHT22;53063;39.614;8.814;2023-07-13T04:48:33;24.40;83.50
66271;DHT22;53063;39.614;8.814;2023-07-13T04:51:00;24.60;83.10
66271;DHT22;53063;39.614;8.814;2023-07-13T04:53:29;24.60;82.60
66271;DHT22;53063;39.614;8.814;2023-07-13T04:55:55;24.70;82.10
66271;DHT22;53063;39.614;8.814;2023-07-13T04:58:24;24.90;80.90
66271;DHT22;53063;39.614;8.814;2023-07-13T05:00:51;25.10;79.10
66271;DHT22;53063;39.614;8.814;2023-07-13T05:03:17;25.30;78.10
66271;DHT22;53063;39.614;8.814;2023-07-13T05:05:53;25.50;77.90
66271;DHT22;53063;39.614;8.814;2023-07-13T05:08:19;25.60;78.10
66271;DHT22;53063;39.614;8.814;2023-07-13T05:10:45;25.60;77.80
66271;DHT22;53063;39.614;8.814;2023-07-13T05:13:11;25.70;77.20
66271;DHT22;53063;39.614;8.814;2023-07-13T05:15:37;25.90;77.00
66271;DHT22;53063;39.614;8.814;2023-07-13T05:18:03;26.00;76.60
66271;DHT22;53063;39.614;8.814;2023-07-13T05:20:29;26.10;77.90
66271;DHT22;53063;39.614;8.814;2023-07-13T05:22:55;26.30;76.80
66271;DHT22;53063;39.614;8.814;2023-07-13T05:25:21;26.40;76.70
66271;DHT22;53063;39.614;8.814;2023-07-13T05:27:48;26.50;75.90
66271;DHT22;53063;39.614;8.814;2023-07-13T05:30:14;26.50;75.60
66271;DHT22;53063;39.614;8.814;2023-07-13T05:32:40;26.50;74.90
66271;DHT22;53063;39.614;8.814;2023-07-13T05:35:07;26.50;73.10
66271;DHT22;53063;39.614;8.814;2023-07-13T05:37:33;26.40;73.10
66271;DHT22;53063;39.614;8.814;2023-07-13T05:39:59;26.60;72.20
66271;DHT22;53063;39.614;8.814;2023-07-13T05:42:26;26.50;72.30
66271;DHT22;53063;39.614;8.814;2023-07-13T05:44:52;26.60;72.70
66271;DHT22;53063;39.614;8.814;2023-07-13T05:47:18;26.70;73.20
66271;DHT22;53063;39.614;8.814;2023-07-13T05:49:44;26.90;73.40
66271;DHT22;53063;39.614;8.814;2023-07-13T05:52:09;26.90;71.50
66271;DHT22;53063;39.614;8.814;2023-07-13T05:54:35;26.80;71.80
66271;DHT22;53063;39.614;8.814;2023-07-13T05:57:01;26.80;72.20
66271;DHT22;53063;39.614;8.814;2023-07-13T05:59:27;26.80;72.60
66271;DHT22;53063;39.614;8.814;2023-07-13T06:01:53;26.70;72.90
66271;DHT22;53063;39.614;8.814;2023-07-13T06:04:19;26.70;72.70
66271;DHT22;53063;39.614;8.814;2023-07-13T06:06:46;26.60;73.50
66271;DHT22;53063;39.614;8.814;2023-07-13T06:09:13;26.50;71.70
66271;DHT22;53063;39.614;8.814;2023-07-13T06:11:39;26.60;70.50
66271;DHT22;53063;39.614;8.814;2023-07-13T06:14:05;26.70;70.40
66271;DHT22;53063;39.614;8.814;2023-07-13T06:16:31;26.80;70.40
66271;DHT22;53063;39.614;8.814;2023-07-13T06:18:57;26.90;71.10
66271;DHT22;53063;39.614;8.814;2023-07-13T06:21:23;27.00;71.10
66271;DHT22;53063;39.614;8.814;2023-07-13T06:23:51;27.30;71.00
66271;DHT22;53063;39.614;8.814;2023-07-13T06:26:18;27.40;71.10
66271;DHT22;53063;39.614;8.814;2023-07-13T06:28:45;27.50;71.60
66271;DHT22;53063;39.614;8.814;2023-07-13T06:31:13;27.70;71.60
66271;DHT22;53063;39.614;8.814;2023-07-13T06:33:39;27.90;70.90
66271;DHT22;53063;39.614;8.814;2023-07-13T06:36:07;27.90;70.70
66271;DHT22;53063;39.614;8.814;2023-07-13T06:38:33;27.90;71.80
66271;DHT22;53063;39.614;8.814;2023-07-13T06:40:59;28.10;70.40
66271;DHT22;53063;39.614;8.814;2023-07-13T06:43:25;28.30;69.50
66271;DHT22;53063;39.614;8.814;2023-07-13T06:45:53;28.40;69.40
66271;DHT22;53063;39.614;8.814;2023-07-13T06:48:20;28.60;67.90
66271;DHT22;53063;39.614;8.814;2023-07-13T06:50:48;28.60;66.90
66271;DHT22;53063;39.614;8.814;2023-07-13T06:53:16;28.80;65.40
66271;DHT22;53063;39.614;8.814;2023-07-13T06:55:43;29.00;64.90
66271;DHT22;53063;39.614;8.814;2023-07-13T06:58:10;29.10;64.90
66271;DHT22;53063;39.614;8.814;2023-07-13T07:00:36;29.30;64.10
66271;DHT22;53063;39.614;8.814;2023-07-13T07:03:02;29.50;63.30
66271;DHT22;53063;39.614;8.814;2023-07-13T07:05:28;29.70;64.00
66271;DHT22;53063;39.614;8.814;2023-07-13T07:07:55;29.90;63.90
66271;DHT22;53063;39.614;8.814;2023-07-13T07:10:21;30.00;64.40
66271;DHT22;53063;39.614;8.814;2023-07-13T07:12:47;29.90;63.80
66271;DHT22;53063;39.614;8.814;2023-07-13T07:15:14;30.20;62.60
66271;DHT22;53063;39.614;8.814;2023-07-13T07:17:40;30.60;62.90
66271;DHT22;53063;39.614;8.814;2023-07-13T07:20:06;30.80;62.10
66271;DHT22;53063;39.614;8.814;2023-07-13T07:22:32;31.00;61.70
66271;DHT22;53063;39.614;8.814;2023-07-13T07:24:58;30.90;61.50
66271;DHT22;53063;39.614;8.814;2023-07-13T07:27:24;30.80;60.80
66271;DHT22;53063;39.614;8.814;2023-07-13T07:29:50;30.70;61.30
66271;DHT22;53063;39.614;8.814;2023-07-13T07:32:17;30.80;61.60
66271;DHT22;53063;39.614;8.814;2023-07-13T07:34:42;30.60;60.60
66271;DHT22;53063;39.614;8.814;2023-07-13T07:37:13;30.70;60.90
66271;DHT22;53063;39.614;8.814;2023-07-13T07:39:39;30.70;60.60
66271;DHT22;53063;39.614;8.814;2023-07-13T07:42:06;30.60;60.40
66271;DHT22;53063;39.614;8.814;2023-07-13T07:44:32;30.50;60.30
66271;DHT22;53063;39.614;8.814;2023-07-13T07:46:59;30.50;61.10
66271;DHT22;53063;39.614;8.814;2023-07-13T07:49:25;30.40;61.20
66271;DHT22;53063;39.614;8.814;2023-07-13T07:51:51;30.40;61.00
66271;DHT22;53063;39.614;8.814;2023-07-13T07:54:18;30.30;60.00
66271;DHT22;53063;39.614;8.814;2023-07-13T07:56:44;30.30;62.00
66271;DHT22;53063;39.614;8.814;2023-07-13T07:59:10;30.40;60.40
66271;DHT22;53063;39.614;8.814;2023-07-13T08:01:36;30.70;61.20
66271;DHT22;53063;39.614;8.814;2023-07-13T08:04:02;31.20;59.00
66271;DHT22;53063;39.614;8.814;2023-07-13T08:06:28;31.40;58.20
66271;DHT22;53063;39.614;8.814;2023-07-13T08:08:55;31.40;58.40
66271;DHT22;53063;39.614;8.814;2023-07-13T08:11:21;31.30;57.50
66271;DHT22;53063;39.614;8.814;2023-07-13T08:13:47;31.50;57.10
66271;DHT22;53063;39.614;8.814;2023-07-13T08:16:13;31.50;56.20
66271;DHT22;53063;39.614;8.814;2023-07-13T08:18:39;31.80;56.00
66271;DHT22;53063;39.614;8.814;2023-07-13T08:21:07;32.30;54.00
66271;DHT22;53063;39.614;8.814;2023-07-13T08:23:34;32.60;53.20
66271;DHT22;53063;39.614;8.814;2023-07-13T08:26:01;32.70;51.80
66271;DHT22;53063;39.614;8.814;2023-07-13T08:28:28;32.90;51.90
66271;DHT22;53063;39.614;8.814;2023-07-13T08:30:54;33.00;51.90
66271;DHT22;53063;39.614;8.814;2023-07-13T08:33:22;33.10;50.90
66271;DHT22;53063;39.614;8.814;2023-07-13T08:35:52;33.40;50.70
66271;DHT22;53063;39.614;8.814;2023-07-13T08:38:19;33.80;49.10
66271;DHT22;53063;39.614;8.814;2023-07-13T08:40:51;33.90;48.50
66271;DHT22;53063;39.614;8.814;2023-07-13T08:43:22;34.00;49.70
66271;DHT22;53063;39.614;8.814;2023-07-13T08:45:55;34.20;49.40
66271;DHT22;53063;39.614;8.814;2023-07-13T08:48:26;34.40;49.40
66271;DHT22;53063;39.614;8.814;2023-07-13T08:51:19;34.60;49.80
66271;DHT22;53063;39.614;8.814;2023-07-13T08:53:54;35.00;46.40
66271;DHT22;53063;39.614;8.814;2023-07-13T08:56:25;35.10;46.50
66271;DHT22;53063;39.614;8.814;2023-07-13T08:59:00;35.30;46.00
66271;DHT22;53063;39.614;8.814;2023-07-13T09:04:07;35.10;42.90
66271;DHT22;53063;39.614;8.814;2023-07-13T09:15:07;33.90;46.20
66271;DHT22;53063;39.614;8.814;2023-07-13T11:11:00;38.10;40.10
66271;DHT22;53063;39.614;8.814;2023-07-13T11:13:55;38.00;41.90
66271;DHT22;53063;39.614;8.814;2023-07-13T11:21:33;37.80;44.00
66271;DHT22;53063;39.614;8.814;2023-07-13T11:24:16;37.80;44.40
66271;DHT22;53063;39.614;8.814;2023-07-13T11:26:43;37.50;45.60
66271;DHT22;53063;39.614;8.814;2023-07-13T11:31:55;37.50;45.70
66271;DHT22;53063;39.614;8.814;2023-07-13T11:34:33;37.50;46.10
66271;DHT22;53063;39.614;8.814;2023-07-13T11:37:01;37.60;44.90
66271;DHT22;53063;39.614;8.814;2023-07-13T11:39:40;37.60;45.10
66271;DHT22;53063;39.614;8.814;2023-07-13T11:42:13;37.50;44.60
66271;DHT22;53063;39.614;8.814;2023-07-13T11:44:49;37.50;44.70
66271;DHT22;53063;39.614;8.814;2023-07-13T11:47:21;37.50;44.40
66271;DHT22;53063;39.614;8.814;2023-07-13T11:49:55;37.40;44.40
66271;DHT22;53063;39.614;8.814;2023-07-13T11:52:36;37.50;45.70
66271;DHT22;53063;39.614;8.814;2023-07-13T11:55:13;37.70;46.00
66271;DHT22;53063;39.614;8.814;2023-07-13T11:57:51;37.50;44.80
66271;DHT22;53063;39.614;8.814;2023-07-13T12:00:22;37.20;45.80
66271;DHT22;53063;39.614;8.814;2023-07-13T12:02:52;37.20;44.30
66271;DHT22;53063;39.614;8.814;2023-07-13T12:05:20;37.40;45.10
66271;DHT22;53063;39.614;8.814;2023-07-13T12:07:47;37.00;44.80
66271;DHT22;53063;39.614;8.814;2023-07-13T12:10:20;37.30;45.20
66271;DHT22;53063;39.614;8.814;2023-07-13T12:12:52;37.40;46.10
66271;DHT22;53063;39.614;8.814;2023-07-13T12:15:18;37.70;45.20
66271;DHT22;53063;39.614;8.814;2023-07-13T12:17:46;37.60;44.40
66271;DHT22;53063;39.614;8.814;2023-07-13T12:20:26;37.50;45.10
66271;DHT22;53063;39.614;8.814;2023-07-13T12:22:52;37.10;46.40
66271;DHT22;53063;39.614;8.814;2023-07-13T12:25:20;37.10;46.10
66271;DHT22;53063;39.614;8.814;2023-07-13T12:27:51;37.20;46.60
66271;DHT22;53063;39.614;8.814;2023-07-13T12:30:34;37.40;46.00
66271;DHT22;53063;39.614;8.814;2023-07-13T12:33:12;37.40;43.90
66271;DHT22;53063;39.614;8.814;2023-07-13T12:35:52;37.30;46.10
66271;DHT22;53063;39.614;8.814;2023-07-13T12:38:24;37.20;45.70
66271;DHT22;53063;39.614;8.814;2023-07-13T12:40:57;37.20;44.50
66271;DHT22;53063;39.614;8.814;2023-07-13T12:43:25;37.10;44.40
66271;DHT22;53063;39.614;8.814;2023-07-13T12:46:03;36.80;45.10
66271;DHT22;53063;39.614;8.814;2023-07-13T12:48:29;36.60;45.50
66271;DHT22;53063;39.614;8.814;2023-07-13T12:50:55;37.00;46.80
66271;DHT22;53063;39.614;8.814;2023-07-13T12:53:29;37.10;46.90
66271;DHT22;53063;39.614;8.814;2023-07-13T12:56:02;37.20;46.70
66271;DHT22;53063;39.614;8.814;2023-07-13T13:01:05;36.90;46.10
66271;DHT22;53063;39.614;8.814;2023-07-13T13:03:35;36.80;47.10
66271;DHT22;53063;39.614;8.814;2023-07-13T13:08:50;36.80;46.20
66271;DHT22;53063;39.614;8.814;2023-07-13T13:11:17;36.70;47.30
66271;DHT22;53063;39.614;8.814;2023-07-13T13:13:45;36.70;45.30
66271;DHT22;53063;39.614;8.814;2023-07-13T13:16:31;36.40;45.20
66271;DHT22;53063;39.614;8.814;2023-07-13T13:19:01;36.50;46.20
66271;DHT22;53063;39.614;8.814;2023-07-13T13:21:31;36.70;46.50
66271;DHT22;53063;39.614;8.814;2023-07-13T13:23:58;36.60;46.10
66271;DHT22;53063;39.614;8.814;2023-07-13T13:26:24;36.40;46.10
66271;DHT22;53063;39.614;8.814;2023-07-13T13:28:51;36.40;44.90
66271;DHT22;53063;39.614;8.814;2023-07-13T13:31:18;36.30;46.10
66271;DHT22;53063;39.614;8.814;2023-07-13T13:33:45;36.00;46.80
66271;DHT22;53063;39.614;8.814;2023-07-13T13:36:19;35.80;46.60
66271;DHT22;53063;39.614;8.814;2023-07-13T13:38:47;35.80;47.60
66271;DHT22;53063;39.614;8.814;2023-07-13T13:41:14;35.80;45.80
66271;DHT22;53063;39.614;8.814;2023-07-13T13:43:41;35.60;46.70
66271;DHT22;53063;39.614;8.814;2023-07-13T13:46:19;35.60;47.70
66271;DHT22;53063;39.614;8.814;2023-07-13T13:48:47;35.40;48.40
66271;DHT22;53063;39.614;8.814;2023-07-13T13:51:18;35.60;46.90
66271;DHT22;53063;39.614;8.814;2023-07-13T13:53:46;35.70;46.80
66271;DHT22;53063;39.614;8.814;2023-07-13T13:56:13;35.60;47.40
66271;DHT22;53063;39.614;8.814;2023-07-13T13:58:39;35.60;47.90
66271;DHT22;53063;39.614;8.814;2023-07-13T14:01:17;35.60;48.10
66271;DHT22;53063;39.614;8.814;2023-07-13T14:03:45;35.60;48.20
66271;DHT22;53063;39.614;8.814;2023-07-13T14:06:15;35.50;47.50
66271;DHT22;53063;39.614;8.814;2023-07-13T14:08:41;35.60;46.20
66271;DHT22;53063;39.614;8.814;2023-07-13T14:11:11;35.50;45.70
66271;DHT22;53063;39.614;8.814;2023-07-13T14:13:43;35.30;44.90
66271;DHT22;53063;39.614;8.814;2023-07-13T14:16:18;35.40;45.90
66271;DHT22;53063;39.614;8.814;2023-07-13T14:18:45;35.40;47.50
66271;DHT22;53063;39.614;8.814;2023-07-13T14:21:17;35.50;47.50
66271;DHT22;53063;39.614;8.814;2023-07-13T14:23:45;35.20;48.30
66271;DHT22;53063;39.614;8.814;2023-07-13T14:26:19;35.20;48.90
66271;DHT22;53063;39.614;8.814;2023-07-13T14:28:51;35.20;48.50
66271;DHT22;53063;39.614;8.814;2023-07-13T14:31:18;35.10;48.80
66271;DHT22;53063;39.614;8.814;2023-07-13T14:33:45;35.00;49.70
66271;DHT22;53063;39.614;8.814;2023-07-13T14:36:21;35.20;50.50
66271;DHT22;53063;39.614;8.814;2023-07-13T14:38:49;35.20;50.20
66271;DHT22;53063;39.614;8.814;2023-07-13T14:41:15;35.00;50.00
66271;DHT22;53063;39.614;8.814;2023-07-13T14:43:42;34.90;51.10
66271;DHT22;53063;39.614;8.814;2023-07-13T14:46:20;34.90;50.00
66271;DHT22;53063;39.614;8.814;2023-07-13T14:48:48;34.70;49.60
66271;DHT22;53063;39.614;8.814;2023-07-13T14:51:15;34.60;49.90
66271;DHT22;53063;39.614;8.814;2023-07-13T14:53:41;34.50;49.20
66271;DHT22;53063;39.614;8.814;2023-07-13T14:56:12;34.50;49.20
66271;DHT22;53063;39.614;8.814;2023-07-13T14:58:38;34.50;47.50
66271;DHT22;53063;39.614;8.814;2023-07-13T15:01:13;34.50;51.10
66271;DHT22;53063;39.614;8.814;2023-07-13T15:03:43;34.30;50.70
66271;DHT22;53063;39.614;8.814;2023-07-13T15:06:13;34.40;51.60
66271;DHT22;53063;39.614;8.814;2023-07-13T15:08:39;34.40;49.80
66271;DHT22;53063;39.614;8.814;2023-07-13T15:11:09;34.50;52.60
66271;DHT22;53063;39.614;8.814;2023-07-13T15:13:41;34.50;53.80
66271;DHT22;53063;39.614;8.814;2023-07-13T15:16:21;34.40;53.00
66271;DHT22;53063;39.614;8.814;2023-07-13T15:18:47;34.20;52.90
66271;DHT22;53063;39.614;8.814;2023-07-13T15:21:23;34.20;55.00
66271;DHT22;53063;39.614;8.814;2023-07-13T15:23:49;34.30;54.60
66271;DHT22;53063;39.614;8.814;2023-07-13T15:26:18;34.10;54.70
66271;DHT22;53063;39.614;8.814;2023-07-13T15:28:45;34.10;55.20
66271;DHT22;53063;39.614;8.814;2023-07-13T15:31:23;34.10;55.70
66271;DHT22;53063;39.614;8.814;2023-07-13T15:33:55;34.10;56.70
66271;DHT22;53063;39.614;8.814;2023-07-13T15:36:22;33.90;56.70
66271;DHT22;53063;39.614;8.814;2023-07-13T15:38:51;33.80;56.70
66271;DHT22;53063;39.614;8.814;2023-07-13T15:41:19;33.80;56.70
66271;DHT22;53063;39.614;8.814;2023-07-13T15:43:46;33.80;57.30
66271;DHT22;53063;39.614;8.814;2023-07-13T15:46:13;33.70;57.40
66271;DHT22;53063;39.614;8.814;2023-07-13T15:48:39;33.60;57.90
66271;DHT22;53063;39.614;8.814;2023-07-13T15:51:11;33.60;57.90
66271;DHT22;53063;39.614;8.814;2023-07-13T15:53:39;33.60;57.90
66271;DHT22;53063;39.614;8.814;2023-07-13T15:56:27;33.40;58.50
66271;DHT22;53063;39.614;8.814;2023-07-13T15:58:55;33.20;58.90
66271;DHT22;53063;39.614;8.814;2023-07-13T16:01:23;33.30;58.70
66271;DHT22;53063;39.614;8.814;2023-07-13T16:03:50;33.40;59.00
66271;DHT22;53063;39.614;8.814;2023-07-13T16:06:42;33.40;58.90
66271;DHT22;53063;39.614;8.814;2023-07-13T16:09:18;33.50;59.20
66271;DHT22;53063;39.614;8.814;2023-07-13T16:11:45;33.30;59.50
66271;DHT22;53063;39.614;8.814;2023-07-13T16:14:13;33.30;59.90
66271;DHT22;53063;39.614;8.814;2023-07-13T16:16:39;33.10;60.60
66271;DHT22;53063;39.614;8.814;2023-07-13T16:19:05;33.10;60.20
66271;DHT22;53063;39.614;8.814;2023-07-13T16:21:42;32.90;60.40
66271;DHT22;53063;39.614;8.814;2023-07-13T16:24:17;32.90;60.80
66271;DHT22;53063;39.614;8.814;2023-07-13T16:26:43;32.90;61.40
66271;DHT22;53063;39.614;8.814;2023-07-13T16:29:27;32.70;61.60
66271;DHT22;53063;39.614;8.814;2023-07-13T16:32:09;32.40;62.00
66271;DHT22;53063;39.614;8.814;2023-07-13T16:34:37;32.50;62.20
66271;DHT22;53063;39.614;8.814;2023-07-13T16:39:37;32.30;63.30
66271;DHT22;53063;39.614;8.814;2023-07-13T16:42:03;32.10;64.50
66271;DHT22;53063;39.614;8.814;2023-07-13T16:44:30;31.90;64.80
66271;DHT22;53063;39.614;8.814;2023-07-13T16:46:57;31.90;65.30
66271;DHT22;53063;39.614;8.814;2023-07-13T16:49:27;31.80;65.60
66271;DHT22;53063;39.614;8.814;2023-07-13T16:51:55;31.70;65.70
66271;DHT22;53063;39.614;8.814;2023-07-13T16:54:28;31.70;66.00
66271;DHT22;53063;39.614;8.814;2023-07-13T16:56:57;31.70;66.30
66271;DHT22;53063;39.614;8.814;2023-07-13T16:59:32;31.60;67.20
66271;DHT22;53063;39.614;8.814;2023-07-13T17:04:55;31.30;68.20
66271;DHT22;53063;39.614;8.814;2023-07-13T17:07:21;31.30;68.50
66271;DHT22;53063;39.614;8.814;2023-07-13T17:09:49;31.10;69.10
66271;DHT22;53063;39.614;8.814;2023-07-13T17:12:17;31.10;69.30
66271;DHT22;53063;39.614;8.814;2023-07-13T17:14:45;31.00;69.50
66271;DHT22;53063;39.614;8.814;2023-07-13T17:17:29;30.90;70.00
66271;DHT22;53063;39.614;8.814;2023-07-13T17:19:58;30.80;70.10
66271;DHT22;53063;39.614;8.814;2023-07-13T17:22:25;30.80;70.30
66271;DHT22;53063;39.614;8.814;2023-07-13T17:24:53;30.70;70.40
66271;DHT22;53063;39.614;8.814;2023-07-13T17:27:20;30.70;70.70
66271;DHT22;53063;39.614;8.814;2023-07-13T17:29:46;30.50;71.00
66271;DHT22;53063;39.614;8.814;2023-07-13T17:32:18;30.40;71.30
66271;DHT22;53063;39.614;8.814;2023-07-13T17:34:45;30.40;71.70
66271;DHT22;53063;39.614;8.814;2023-07-13T17:37:16;30.30;71.80
66271;DHT22;53063;39.614;8.814;2023-07-13T17:39:43;30.30;72.30
66271;DHT22;53063;39.614;8.814;2023-07-13T17:42:13;30.30;72.50
66271;DHT22;53063;39.614;8.814;2023-07-13T17:44:39;30.30;72.40
66271;DHT22;53063;39.614;8.814;2023-07-13T17:47:23;30.00;72.40
66271;DHT22;53063;39.614;8.814;2023-07-13T17:49:50;30.00;73.00
66271;DHT22;53063;39.614;8.814;2023-07-13T17:52:16;29.80;73.30
66271;DHT22;53063;39.614;8.814;2023-07-13T17:54:42;29.70;73.70
66271;DHT22;53063;39.614;8.814;2023-07-13T17:57:08;29.60;73.50
66271;DHT22;53063;39.614;8.814;2023-07-13T17:59:36;29.50;74.20
66271;DHT22;53063;39.614;8.814;2023-07-13T18:02:02;29.50;73.80
66271;DHT22;53063;39.614;8.814;2023-07-13T18:04:28;29.50;73.20